Time;durP1;ratioP1;P1;durP2;ratioP2;P2;SDS_P1;SDS_P2;PMS_P1;PMS_P2;Temp;Humidity;BMP_temperature;BMP_pressure;BME280_temperature;BME280_humidity;BME280_pressure;Samples;Min_cycle;Max_cycle;Signal;HPM_P1;HPM_P2
2022/03/28 00:00:10;;;;;;;11.83;8.10;;;6.20;1.00;;;;;;5073427;28;20188;-84
2022/03/28 00:02:40;;;;;;;9.17;6.40;;;6.20;1.00;;;;;;5073867;28;20271;-84
2022/03/28 00:05:07;;;;;;;;;;;6.20;1.00;;;;;;5074135;28;20191;-84
2022/03/28 00:07:34;;;;;;;9.27;5.87;;;6.20;1.00;;;;;;5073407;28;20437;-84
2022/03/28 00:10:02;;;;;;;9.53;6.33;;;6.10;1.00;;;;;;5073536;28;20281;-84
2022/03/28 00:12:31;;;;;;;10.20;6.37;;;6.10;1.00;;;;;;5073224;28;20196;-83
2022/03/28 00:14:58;;;;;;;10.03;7.03;;;6.10;1.00;;;;;;5073670;28;20283;-83
2022/03/28 00:17:25;;;;;;;14.03;10.40;;;6.10;1.00;;;;;;5073123;28;20553;-84
2022/03/28 00:19:52;;;;;;;12.10;8.03;;;6.10;1.00;;;;;;5073121;28;20200;-84
2022/03/28 00:22:19;;;;;;;8.10;6.40;;;6.00;1.00;;;;;;5073562;28;20192;-84
2022/03/28 00:24:46;;;;;;;11.43;6.60;;;6.00;1.00;;;;;;5072344;28;20194;-83
2022/03/28 00:27:13;;;;;;;14.87;8.30;;;6.00;1.00;;;;;;5072935;28;20714;-84
2022/03/28 00:29:41;;;;;;;12.50;6.97;;;5.90;1.00;;;;;;5072647;28;20187;-84
2022/03/28 00:32:09;;;;;;;12.93;7.10;;;5.90;1.00;;;;;;5072887;28;20613;-84
2022/03/28 00:34:36;;;;;;;11.50;6.87;;;5.90;1.00;;;;;;5073035;28;20272;-84
2022/03/28 00:37:05;;;;;;;10.57;6.83;;;5.90;1.00;;;;;;5073061;28;20206;-83
2022/03/28 00:39:32;;;;;;;11.03;6.27;;;5.90;1.00;;;;;;5073008;28;20282;-84
2022/03/28 00:41:59;;;;;;;11.00;6.43;;;5.90;1.00;;;;;;5072736;28;20245;-84
2022/03/28 00:44:26;;;;;;;9.90;6.27;;;5.90;1.00;;;;;;5072921;28;20196;-84
2022/03/28 00:46:54;;;;;;;11.10;6.33;;;5.90;1.00;;;;;;5073123;28;20241;-83
2022/03/28 00:49:21;;;;;;;11.67;6.77;;;5.90;1.00;;;;;;5072910;28;20716;-84
2022/03/28 00:51:48;;;;;;;10.20;6.73;;;5.80;1.00;;;;;;5072175;28;20553;-84
2022/03/28 00:54:16;;;;;;;10.87;6.37;;;5.80;1.00;;;;;;5072716;28;20622;-84
2022/03/28 00:56:47;;;;;;;11.33;7.23;;;5.80;1.00;;;;;;5072272;28;20657;-84
2022/03/28 00:59:15;;;;;;;15.40;9.13;;;5.80;1.00;;;;;;5072725;28;20195;-83
2022/03/28 01:01:42;;;;;;;13.53;10.80;;;5.80;1.00;;;;;;5072740;28;20196;-84
2022/03/28 01:04:10;;;;;;;13.43;8.20;;;5.70;1.00;;;;;;5072539;28;20228;-84
2022/03/28 01:06:38;;;;;;;11.13;8.27;;;5.70;1.00;;;;;;5072445;28;20649;-84
2022/03/28 01:09:06;;;;;;;14.43;10.07;;;5.70;1.00;;;;;;5072042;28;20625;-84
2022/03/28 01:11:35;;;;;;;14.87;9.57;;;5.70;1.00;;;;;;5072354;28;20194;-84
2022/03/28 01:14:02;;;;;;;11.23;6.83;;;5.70;1.00;;;;;;5072239;28;20271;-84
2022/03/28 01:16:30;;;;;;;10.03;6.00;;;5.70;1.00;;;;;;5072162;28;20240;-84
2022/03/28 01:18:56;;;;;;;11.20;6.70;;;5.70;1.00;;;;;;5072262;28;20599;-84
2022/03/28 01:21:25;;;;;;;12.80;6.00;;;5.70;1.00;;;;;;5072349;28;20238;-84
2022/03/28 01:23:52;;;;;;;11.27;6.40;;;5.70;1.00;;;;;;5072660;28;20252;-84
2022/03/28 01:26:19;;;;;;;12.30;6.23;;;5.60;1.00;;;;;;5071962;28;20223;-84
2022/03/28 01:28:46;;;;;;;10.73;6.37;;;5.60;1.00;;;;;;5072563;28;20199;-84
2022/03/28 01:31:14;;;;;;;12.87;5.97;;;5.60;1.00;;;;;;5071984;28;20241;-84
2022/03/28 01:33:41;;;;;;;11.77;6.67;;;5.60;1.00;;;;;;5071776;28;20216;-84
2022/03/28 01:36:08;;;;;;;12.13;6.60;;;5.50;1.00;;;;;;5072298;28;20196;-83
2022/03/28 01:38:37;;;;;;;13.57;6.37;;;5.50;1.00;;;;;;5072301;28;20659;-84
2022/03/28 01:41:04;;;;;;;9.47;6.27;;;5.50;1.00;;;;;;5071967;28;20244;-84
2022/03/28 01:43:31;;;;;;;11.30;6.93;;;5.40;1.00;;;;;;5072583;28;20199;-84
2022/03/28 01:45:58;;;;;;;10.93;6.40;;;5.40;1.00;;;;;;5071922;28;20679;-84
2022/03/28 01:48:25;;;;;;;11.33;6.97;;;5.30;1.00;;;;;;5072444;28;20202;-84
2022/03/28 01:50:52;;;;;;;11.83;6.70;;;5.20;1.00;;;;;;5072209;28;20194;-84
2022/03/28 01:53:19;;;;;;;10.30;6.87;;;5.20;1.00;;;;;;5072052;28;20602;-83
2022/03/28 01:55:47;;;;;;;13.47;7.90;;;5.20;1.00;;;;;;5071798;28;20195;-84
2022/03/28 01:58:14;;;;;;;12.00;8.00;;;5.10;1.00;;;;;;5071796;28;20203;-84
2022/03/28 02:00:41;;;;;;;13.63;8.93;;;5.10;1.00;;;;;;5072133;28;20199;-84
2022/03/28 02:03:09;;;;;;;15.47;8.57;;;5.10;1.00;;;;;;5073402;28;20195;-84
2022/03/28 02:05:36;;;;;;;11.80;7.73;;;5.00;1.00;;;;;;5076002;28;20352;-84
2022/03/28 02:08:03;;;;;;;14.00;9.20;;;5.00;1.00;;;;;;5075617;28;20252;-84
2022/03/28 02:10:30;;;;;;;16.57;9.60;;;5.00;1.00;;;;;;5075804;28;20746;-84
2022/03/28 02:12:59;;;;;;;12.47;8.00;;;5.00;1.00;;;;;;5075768;28;20713;-84
2022/03/28 02:15:26;;;;;;;13.57;7.00;;;5.00;1.00;;;;;;5075691;28;20226;-84
2022/03/28 02:17:53;;;;;;;10.53;6.60;;;5.00;1.00;;;;;;5075530;28;20190;-84
2022/03/28 02:20:20;;;;;;;11.37;7.20;;;5.00;1.00;;;;;;5075458;28;20605;-84
2022/03/28 02:22:47;;;;;;;13.43;7.17;;;5.00;1.00;;;;;;5075612;28;20206;-84
2022/03/28 02:25:16;;;;;;;10.40;6.80;;;5.00;1.00;;;;;;5075111;28;20197;-84
2022/03/28 02:27:43;;;;;;;11.97;7.70;;;4.90;1.00;;;;;;5075576;28;20280;-84
2022/03/28 02:30:13;;;;;;;14.80;8.40;;;4.90;1.00;;;;;;5075639;28;20202;-85
2022/03/28 02:32:40;;;;;;;11.77;7.57;;;4.90;12.90;;;;;;5075839;28;20255;-84
2022/03/28 02:35:08;;;;;;;12.27;7.50;;;4.90;27.50;;;;;;5075368;28;20617;-84
2022/03/28 02:37:36;;;;;;;11.83;7.57;;;4.90;39.80;;;;;;5075020;28;20206;-84
2022/03/28 02:40:04;;;;;;;11.53;7.40;;;4.80;63.70;;;;;;5074997;28;20198;-85
2022/03/28 02:42:31;;;;;;;13.07;7.77;;;4.80;51.20;;;;;;5075068;28;20223;-85
2022/03/28 02:44:58;;;;;;;12.63;7.57;;;4.80;58.70;;;;;;5075509;28;20250;-85
2022/03/28 02:47:26;;;;;;;16.47;8.73;;;4.70;52.20;;;;;;5074898;28;20653;-84
2022/03/28 02:49:54;;;;;;;57.27;33.00;;;4.70;50.10;;;;;;5074480;28;20281;-85
2022/03/28 02:52:22;;;;;;;13.87;8.93;;;4.70;42.80;;;;;;5074889;28;20650;-84
2022/03/28 02:54:49;;;;;;;13.57;8.17;;;4.60;63.30;;;;;;5075041;28;20214;-84
2022/03/28 02:57:16;;;;;;;12.93;8.73;;;4.60;59.40;;;;;;5075030;28;20633;-85
2022/03/28 02:59:43;;;;;;;19.60;12.03;;;4.60;99.50;;;;;;5074736;28;20254;-84
2022/03/28 03:02:10;;;;;;;24.10;19.47;;;4.50;99.90;;;;;;5074694;28;20249;-85
2022/03/28 03:04:39;;;;;;;16.53;12.03;;;4.50;99.90;;;;;;5074538;28;20608;-84
2022/03/28 03:07:06;;;;;;;16.93;10.50;;;4.50;99.90;;;;;;5074587;28;20561;-85
2022/03/28 03:09:33;;;;;;;15.97;8.90;;;4.50;99.90;;;;;;5074556;28;20229;-84
2022/03/28 03:12:00;;;;;;;15.77;8.50;;;4.50;99.90;;;;;;5075121;28;20199;-85
2022/03/28 03:14:28;;;;;;;14.30;8.30;;;4.40;99.90;;;;;;5074293;28;20209;-84
2022/03/28 03:16:55;;;;;;;14.30;8.37;;;4.50;99.90;;;;;;5074446;28;20284;-85
2022/03/28 03:19:22;;;;;;;18.07;8.57;;;4.40;99.90;;;;;;5074130;28;20250;-84
2022/03/28 03:21:50;;;;;;;15.90;9.03;;;4.30;99.90;;;;;;5074350;28;20265;-84
2022/03/28 03:24:18;;;;;;;15.17;9.63;;;4.30;99.90;;;;;;5074619;28;20207;-85
2022/03/28 03:26:45;;;;;;;14.73;9.53;;;4.30;99.90;;;;;;5074518;28;20191;-85
2022/03/28 03:29:12;;;;;;;13.30;8.40;;;4.30;99.90;;;;;;5073915;28;20208;-84
2022/03/28 03:31:39;;;;;;;15.80;7.97;;;4.30;99.90;;;;;;5074126;28;20725;-85
2022/03/28 03:34:06;;;;;;;;;;;4.30;99.90;;;;;;5074632;28;20102;-85
2022/03/28 03:36:33;;;;;;;;;;;4.30;99.90;;;;;;5074664;28;20011;-84
2022/03/28 03:39:01;;;;;;;;;;;4.30;99.90;;;;;;5074986;28;19920;-85
2022/03/28 03:41:28;;;;;;;;;;;4.30;99.90;;;;;;5074311;28;19924;-85
2022/03/28 03:43:55;;;;;;;;;;;4.30;99.90;;;;;;5074343;28;19988;-85
2022/03/28 03:46:22;;;;;;;;;;;4.20;99.90;;;;;;5074211;28;19920;-84
2022/03/28 03:48:50;;;;;;;;;;;4.20;99.90;;;;;;5074246;28;20331;-85
2022/03/28 03:51:17;;;;;;;;;;;4.20;99.90;;;;;;5091162;28;20015;-85
2022/03/28 03:53:44;;;;;;;;;;;4.20;99.90;;;;;;5074485;28;19926;-86
2022/03/28 03:56:12;;;;;;;;;;;4.20;99.90;;;;;;5074184;28;20365;-86
2022/03/28 03:58:39;;;;;;;19.23;12.40;;;4.10;99.90;;;;;;5073811;28;19999;-86
2022/03/28 04:01:08;;;;;;;15.33;9.07;;;4.10;99.90;;;;;;5073596;28;20192;-86
2022/03/28 04:03:35;;;;;;;16.50;9.37;;;4.10;99.90;;;;;;5073724;28;20192;-87
2022/03/28 04:06:03;;;;;;;17.73;9.70;;;4.10;99.90;;;;;;5073971;28;20250;-86
2022/03/28 04:08:30;;;;;;;16.60;8.67;;;4.00;99.90;;;;;;5073664;28;20615;-86
2022/03/28 04:10:57;;;;;;;;;;;4.00;99.90;;;;;;5073569;28;20233;-86
2022/03/28 04:13:25;;;;;;;;;;;3.90;99.90;;;;;;5073711;28;19973;-86
2022/03/28 04:15:52;;;;;;;;;;;3.90;99.90;;;;;;5073577;28;20368;-86
2022/03/28 04:18:19;;;;;;;;;;;3.80;99.90;;;;;;5073549;28;20442;-85
2022/03/28 04:20:46;;;;;;;;;;;3.80;99.90;;;;;;5073365;28;19947;-86
2022/03/28 04:23:13;;;;;;;;;;;3.80;1.00;;;;;;5073483;28;20437;-86
2022/03/28 04:25:39;;;;;;;;;;;3.70;1.00;;;;;;5073182;28;19924;-86
2022/03/28 04:28:07;;;;;;;15.80;8.30;;;3.80;1.00;;;;;;5073196;28;20710;-86
2022/03/28 04:30:36;;;;;;;;;;;3.80;1.00;;;;;;5073980;28;19994;-86
2022/03/28 04:33:07;;;;;;;;;;;3.80;1.00;;;;;;5076327;28;19982;-87
2022/03/28 04:35:34;;;;;;;;;;;3.80;1.00;;;;;;5093001;28;19921;-85
2022/03/28 04:38:05;;;;;;;;;;;3.80;1.00;;;;;;5095152;28;19904;-87
2022/03/28 04:40:33;;;;;;;;;;;3.70;1.00;;;;;;5085255;28;19920;-86
2022/03/28 04:43:00;;;;;;;;;;;3.70;1.00;;;;;;5073111;28;20403;-86
2022/03/28 04:45:27;;;;;;;;;;;3.70;1.00;;;;;;5073371;28;19927;-86
2022/03/28 04:47:55;;;;;;;;;;;3.70;1.00;;;;;;5073138;28;19920;-86
2022/03/28 04:50:23;;;;;;;;;;;3.70;1.00;;;;;;5085358;28;19920;-87
2022/03/28 04:52:49;;;;;;;;;;;3.70;1.00;;;;;;5082445;28;19920;-86
2022/03/28 04:55:16;;;;;;;;;;;3.70;1.00;;;;;;5072930;28;19925;-86
2022/03/28 04:57:43;;;;;;;;;;;3.70;1.00;;;;;;5073281;28;19966;-87
2022/03/28 05:00:11;;;;;;;;;;;3.70;1.00;;;;;;5087304;28;19920;-89
2022/03/28 05:02:38;;;;;;;;;;;3.80;1.00;;;;;;5087132;28;19904;-89
2022/03/28 05:05:07;;;;;;;;;;;3.70;1.00;;;;;;5092993;28;19928;-87
2022/03/28 05:07:35;;;;;;;;;;;3.80;1.00;;;;;;5080766;28;19920;-86
2022/03/28 05:10:07;;;;;;;;;;;3.80;1.00;;;;;;5089797;28;19971;-89
2022/03/28 05:12:34;;;;;;;;;;;3.80;1.00;;;;;;5088344;28;19948;-85
2022/03/28 05:15:01;;;;;;;;;;;3.90;1.00;;;;;;5077725;28;19921;-85
2022/03/28 05:17:30;;;;;;;;;;;4.00;1.00;;;;;;5086762;28;19943;-90
2022/03/28 05:19:59;;;;;;;;;;;4.00;1.00;;;;;;5090012;28;20007;-86
2022/03/28 05:22:27;;;;;;;;;;;4.10;1.00;;;;;;5080285;28;20374;-85
2022/03/28 05:24:59;;;;;;;;;;;4.10;48.90;;;;;;5083175;28;19952;-90
2022/03/28 05:27:26;;;;;;;;;;;4.20;91.80;;;;;;5086321;28;20006;-88
2022/03/28 05:29:53;;;;;;;;;;;4.30;99.90;;;;;;5084133;28;19965;-86
2022/03/28 05:32:23;;;;;;;;;;;4.40;99.90;;;;;;5084780;28;19921;-87
2022/03/28 05:34:50;;;;;;;;;;;4.50;99.90;;;;;;5075354;28;19990;-86
2022/03/28 05:37:18;;;;;;;30.80;14.70;;;4.90;1.00;;;;;;5082476;28;19969;-87
2022/03/28 05:39:48;;;;;;;;;;;5.70;93.00;;;;;;5081688;28;20602;-87
2022/03/28 05:42:16;;;;;;;42.60;17.83;;;6.80;99.90;;;;;;5084371;28;20462;-85
2022/03/28 05:44:43;;;;;;;32.20;13.10;;;8.00;99.90;;;;;;5084602;28;20273;-87
2022/03/28 05:47:11;;;;;;;58.10;23.77;;;9.00;99.90;;;;;;5081230;28;20202;-84
2022/03/28 05:49:38;;;;;;;42.50;18.23;;;9.90;1.00;;;;;;5083265;28;20655;-87
2022/03/28 05:52:06;;;;;;;53.47;22.80;;;10.80;1.00;;;;;;5088060;28;20229;-86
2022/03/28 05:54:33;;;;;;;41.60;15.73;;;11.40;99.90;;;;;;5081261;28;20264;-87
2022/03/28 05:57:02;;;;;;;;;;;12.10;1.00;;;;;;5093148;28;20075;-89
2022/03/28 05:59:29;;;;;;;42.60;18.03;;;12.70;99.90;;;;;;5085910;28;19990;-84
2022/03/28 06:01:56;;;;;;;56.60;20.37;;;13.40;79.00;;;;;;5088983;28;20136;-85
2022/03/28 06:04:41;;;;;;;28.70;12.25;;;13.90;1.00;;;;;;5083574;28;20624;-86
2022/03/28 06:07:08;;;;;;;76.30;22.90;;;14.40;1.00;;;;;;5084370;28;20187;-86
2022/03/28 06:09:35;;;;;;;79.60;33.47;;;14.90;99.90;;;;;;5081095;28;20220;-84
2022/03/28 06:12:04;;;;;;;115.53;42.78;;;15.30;99.90;;;;;;5087036;28;20206;-89
2022/03/28 06:14:31;;;;;;;99.17;37.07;;;14.70;5.20;;;;;;5086367;28;20199;-84
2022/03/28 06:16:58;;;;;;;59.10;24.80;;;13.80;1.00;;;;;;5081590;28;20199;-84
2022/03/28 06:19:30;;;;;;;131.43;50.03;;;13.10;24.40;;;;;;5078617;28;20600;-87
2022/03/28 06:21:57;;;;;;;80.57;32.10;;;12.90;99.90;;;;;;5077878;28;20178;-85
2022/03/28 06:24:25;;;;;;;65.47;29.00;;;13.40;99.90;;;;;;5079222;28;20199;-85
2022/03/28 06:26:52;;;;;;;60.30;26.30;;;13.90;99.90;;;;;;5078568;28;20190;-85
2022/03/28 06:29:20;;;;;;;53.97;23.33;;;14.00;49.70;;;;;;5083150;28;20199;-86
2022/03/28 06:31:51;;;;;;;74.13;27.20;;;13.70;1.00;;;;;;5083198;28;20660;-88
2022/03/28 06:34:23;;;;;;;54.03;22.50;;;13.20;8.40;;;;;;5080484;28;20589;-84
2022/03/28 06:36:50;;;;;;;48.40;21.40;;;12.90;18.00;;;;;;5086351;28;20224;-85
2022/03/28 06:39:17;;;;;;;37.43;16.37;;;12.60;36.20;;;;;;5083968;28;20190;-84
2022/03/28 06:41:44;;;;;;;33.57;13.73;;;12.30;54.60;;;;;;5084356;28;20183;-85
2022/03/28 06:44:14;;;;;;;30.97;16.13;;;12.00;98.80;;;;;;5088184;28;20253;-87
2022/03/28 06:46:44;;;;;;;25.27;12.80;;;11.90;99.90;;;;;;5081776;28;20676;-85
2022/03/28 06:49:12;;;;;;;18.37;9.37;;;11.90;99.90;;;;;;5083894;28;20208;-84
2022/03/28 06:51:39;;;;;;;19.60;10.27;;;12.30;99.90;;;;;;5078472;28;20189;-84
2022/03/28 06:54:07;;;;;;;30.20;15.57;;;12.60;99.90;;;;;;5077060;28;20641;-85
2022/03/28 06:56:34;;;;;;;30.77;15.87;;;12.70;99.90;;;;;;5084358;28;20219;-85
2022/03/28 06:59:01;;;;;;;40.33;21.30;;;12.60;99.90;;;;;;5079378;28;20655;-85
2022/03/28 07:01:28;;;;;;;22.87;12.73;;;12.80;99.90;;;;;;5077824;28;20238;-85
2022/03/28 07:04:00;;;;;;;22.47;12.50;;;13.40;99.90;;;;;;5086011;28;20195;-88
2022/03/28 07:06:27;;;;;;;25.40;15.20;;;13.90;99.90;;;;;;5082968;28;20184;-85
2022/03/28 07:08:54;;;;;;;40.77;20.53;;;14.00;49.40;;;;;;5078919;28;20699;-84
2022/03/28 07:11:21;;;;;;;48.67;19.97;;;14.00;14.80;;;;;;5078380;28;20180;-84
2022/03/28 07:13:48;;;;;;;36.47;17.60;;;13.80;1.00;;;;;;5076964;28;20741;-83
2022/03/28 07:16:19;;;;;;;28.30;16.07;;;13.50;1.00;;;;;;5079135;28;20228;-84
2022/03/28 07:18:46;;;;;;;32.43;16.23;;;13.20;1.00;;;;;;5078903;28;20190;-84
2022/03/28 07:21:15;;;;;;;127.80;48.37;;;12.70;1.00;;;;;;5081338;28;20191;-83
2022/03/28 07:23:43;;;;;;;47.93;22.73;;;12.40;1.00;;;;;;5079709;28;20598;-84
2022/03/28 07:26:11;;;;;;;40.07;20.97;;;12.10;24.90;;;;;;5075928;28;20233;-83
2022/03/28 07:28:39;;;;;;;32.63;17.27;;;12.00;93.90;;;;;;5076154;28;20203;-86
2022/03/28 07:31:08;;;;;;;38.30;17.67;;;11.80;99.90;;;;;;5076450;28;20191;-84
2022/03/28 07:33:36;;;;;;;30.23;16.77;;;11.80;99.90;;;;;;5075252;28;20194;-84
2022/03/28 07:36:07;;;;;;;36.97;18.47;;;11.90;99.90;;;;;;5076944;28;20219;-86
2022/03/28 07:38:36;;;;;;;34.73;15.07;;;11.90;99.90;;;;;;5076428;28;20192;-85
2022/03/28 07:41:04;;;;;;;28.50;14.23;;;12.10;99.90;;;;;;5078399;28;20250;-85
2022/03/28 07:43:32;;;;;;;26.83;13.63;;;12.50;99.90;;;;;;5065931;28;20191;-86
2022/03/28 07:46:00;;;;;;;26.77;14.37;;;12.90;99.90;;;;;;5076345;28;20201;-85
2022/03/28 07:48:27;;;;;;;24.40;13.70;;;13.30;99.90;;;;;;5075644;28;20660;-85
2022/03/28 07:50:55;;;;;;;25.17;13.83;;;13.50;99.10;;;;;;5073544;28;20232;-83
2022/03/28 07:53:23;;;;;;;27.13;15.63;;;13.90;90.10;;;;;;5078885;28;20247;-85
2022/03/28 07:55:51;;;;;;;34.90;17.00;;;13.90;5.00;;;;;;5078077;28;20574;-85
2022/03/28 07:58:22;;;;;;;26.93;13.37;;;14.00;1.00;;;;;;5082860;28;20179;-88
2022/03/28 08:00:50;;;;;;;25.77;14.83;;;14.00;1.00;;;;;;5069808;28;20201;-88
2022/03/28 08:03:17;;;;;;;24.37;13.70;;;14.20;1.00;;;;;;5060723;28;20279;-84
2022/03/28 08:05:44;;;;;;;32.47;16.67;;;14.50;1.00;;;;;;5059634;28;20206;-86
2022/03/28 08:08:14;;;;;;;25.85;14.65;;;14.70;1.00;;;;;;5055733;28;20259;-85
2022/03/28 08:10:44;;;;;;;31.93;16.07;;;14.70;1.00;;;;;;5056224;28;20278;-83
2022/03/28 08:13:13;;;;;;;23.35;13.18;;;14.70;1.00;;;;;;5058200;28;20556;-84
2022/03/28 08:15:41;;;;;;;30.33;15.55;;;14.90;1.00;;;;;;5054013;28;20591;-83
2022/03/28 08:18:08;;;;;;;27.17;14.25;;;15.20;1.00;;;;;;5054904;28;20662;-84
2022/03/28 08:20:35;;;;;;;23.55;13.13;;;15.50;1.00;;;;;;5075489;28;20200;-84
2022/03/28 08:23:02;;;;;;;27.92;14.00;;;15.80;1.00;;;;;;5076475;28;20250;-84
2022/03/28 08:25:30;;;;;;;25.88;14.07;;;16.30;1.00;;;;;;5076357;28;20250;-84
2022/03/28 08:28:00;;;;;;;31.23;15.43;;;16.70;1.00;;;;;;5075358;28;20192;-86
2022/03/28 08:30:29;;;;;;;29.83;15.88;;;17.30;1.00;;;;;;5076293;28;20445;-88
2022/03/28 08:32:56;;;;;;;31.27;16.27;;;17.70;1.00;;;;;;5058864;28;20195;-90
2022/03/28 08:35:25;;;;;;;29.73;15.68;;;18.10;1.00;;;;;;5055112;28;20197;-86
2022/03/28 08:37:52;;;;;;;43.75;19.17;;;18.30;1.00;;;;;;5054249;28;20204;-83
2022/03/28 08:40:19;;;;;;;32.15;17.35;;;18.40;1.00;;;;;;5054795;28;20558;-87
2022/03/28 08:42:47;;;;;;;42.53;24.33;;;18.70;1.00;;;;;;5064109;28;20188;-86
2022/03/28 08:45:15;;;;;;;31.25;18.52;;;19.10;1.00;;;;;;5058168;28;20189;-88
2022/03/28 08:47:45;;;;;;;32.53;17.60;;;19.50;1.00;;;;;;5058716;28;20197;-85
2022/03/28 08:50:14;;;;;;;48.33;24.52;;;19.90;1.00;;;;;;5052370;28;20177;-87
2022/03/28 08:52:41;;;;;;;34.65;18.60;;;20.40;1.00;;;;;;5056894;28;20667;-88
2022/03/28 08:55:09;;;;;;;59.40;31.08;;;20.90;1.00;;;;;;5056292;28;20204;-87
2022/03/28 08:57:37;;;;;;;37.92;20.13;;;21.30;1.00;;;;;;5053081;28;20258;-87
2022/03/28 09:00:05;;;;;;;48.28;24.17;;;21.50;1.00;;;;;;5073525;28;20614;-86
2022/03/28 09:02:39;;;;;;;34.17;18.00;;;21.80;1.00;;;;;;5070534;28;20204;-88
2022/03/28 09:05:12;;;;;;;39.05;19.50;;;21.90;1.00;;;;;;5075007;28;20177;-90
2022/03/28 09:07:46;;;;;;;43.25;21.65;;;22.20;1.00;;;;;;5077298;28;20200;-86
2022/03/28 09:10:15;;;;;;;83.82;27.85;;;22.40;1.00;;;;;;5078417;28;20218;-85
2022/03/28 09:12:57;;;;;;;41.05;19.90;;;22.60;1.00;;;;;;5073113;28;20246;-84
2022/03/28 09:15:24;;;;;;;29.90;14.57;;;22.70;1.00;;;;;;5072322;28;20184;-84
2022/03/28 09:17:56;;;;;;;47.53;23.27;;;22.60;1.00;;;;;;5071572;28;20196;-85
2022/03/28 09:20:25;;;;;;;52.42;27.30;;;22.70;1.00;;;;;;5078282;28;20641;-84
2022/03/28 09:22:58;;;;;;;36.58;20.60;;;22.70;1.00;;;;;;5073231;28;20249;-89
2022/03/28 09:25:25;;;;;;;28.63;16.95;;;22.70;1.00;;;;;;5081698;28;20231;-85
2022/03/28 09:27:52;;;;;;;31.10;19.58;;;22.80;1.00;;;;;;5073072;28;20196;-87
2022/03/28 09:30:27;;;;;;;31.90;18.48;;;22.70;1.00;;;;;;5061712;28;20201;-88
2022/03/28 09:32:59;;;;;;;31.13;18.45;;;22.70;1.00;;;;;;5082393;28;20187;-88
2022/03/28 09:35:28;;;;;;;29.15;19.63;;;22.60;1.00;;;;;;5082646;28;20191;-84
2022/03/28 09:38:02;;;;;;;26.60;17.75;;;22.60;1.00;;;;;;5080721;28;20230;-90
2022/03/28 09:40:32;;;;;;;27.63;17.88;;;22.60;1.00;;;;;;5083161;28;20215;-85
2022/03/28 09:43:05;;;;;;;24.08;16.70;;;22.60;1.00;;;;;;5068022;28;20285;-87
2022/03/28 09:45:36;;;;;;;38.92;23.65;;;22.50;1.00;;;;;;5054645;28;20340;-84
2022/03/28 09:48:06;;;;;;;26.30;17.20;;;22.50;1.00;;;;;;5056003;28;20243;-84
2022/03/28 09:50:38;;;;;;;25.50;16.80;;;22.30;1.00;;;;;;5053830;28;20200;-87
2022/03/28 09:53:20;;;;;;;39.65;22.92;;;22.10;1.00;;;;;;5055229;28;20616;-84
2022/03/28 09:55:53;;;;;;;32.38;20.00;;;21.60;1.00;;;;;;5053705;28;20199;-84
2022/03/28 09:58:34;;;;;;;28.58;17.00;;;21.20;1.00;;;;;;5059051;28;20207;-86
2022/03/28 10:01:02;;;;;;;67.88;19.77;;;20.70;1.00;;;;;;5061426;28;20184;-84
2022/03/28 10:03:33;;;;;;;31.65;16.38;;;20.30;1.00;;;;;;5073922;28;20601;-85
2022/03/28 10:06:02;;;;;;;42.30;20.75;;;19.90;1.00;;;;;;5066034;28;20220;-84
2022/03/28 10:08:30;;;;;;;58.42;22.65;;;19.60;1.00;;;;;;5051906;28;20305;-85
2022/03/28 10:11:00;;;;;;;37.70;21.02;;;19.50;1.00;;;;;;5054819;28;20232;-87
2022/03/28 10:13:30;;;;;;;44.30;18.63;;;19.20;1.00;;;;;;5059600;28;20196;-86
2022/03/28 10:15:57;;;;;;;31.45;17.60;;;19.00;1.00;;;;;;5062159;28;20204;-86
2022/03/28 10:18:28;;;;;;;23.63;15.15;;;18.80;1.00;;;;;;5056405;28;20196;-87
2022/03/28 10:20:56;;;;;;;21.65;13.93;;;18.50;1.00;;;;;;5052343;28;20189;-85
2022/03/28 10:23:30;;;;;;;27.80;15.98;;;18.40;1.00;;;;;;5052295;28;20197;-84
2022/03/28 10:26:01;;;;;;;41.70;22.38;;;18.30;1.00;;;;;;5055233;28;20593;-88
2022/03/28 10:28:28;;;;;;;20.90;13.15;;;18.20;1.00;;;;;;5072241;28;20261;-85
2022/03/28 10:31:19;;;;;;;23.75;14.55;;;18.20;1.00;;;;;;5078087;28;20245;-82
2022/03/28 10:33:49;;;;;;;17.88;12.75;;;18.10;1.00;;;;;;5078807;28;20231;-86
2022/03/28 10:36:31;;;;;;;22.88;13.43;;;18.00;1.00;;;;;;5083477;28;20685;-83
2022/03/28 10:39:33;;;;;;;22.75;14.07;;;18.00;1.00;;;;;;5082071;28;20190;-83
2022/03/28 10:42:17;;;;;;;15.70;11.18;;;18.00;1.00;;;;;;5077759;28;20644;-85
2022/03/28 10:45:00;;;;;;;19.58;11.95;;;17.90;1.00;;;;;;5079209;28;20314;-83
2022/03/28 10:47:44;;;;;;;23.10;16.00;;;17.90;1.00;;;;;;5080681;28;20206;-85
2022/03/28 10:50:12;;;;;;;37.10;20.60;;;17.90;1.00;;;;;;5076703;28;20548;-82
2022/03/28 10:53:03;;;;;;;29.05;18.05;;;17.90;1.00;;;;;;5076197;28;20203;-84
2022/03/28 10:55:37;;;;;;;41.65;28.02;;;17.80;1.00;;;;;;5077137;28;20193;-83
2022/03/28 10:58:22;;;;;;;31.85;18.85;;;17.70;1.00;;;;;;5076642;28;20539;-85
2022/03/28 11:01:27;;;;;;;28.60;18.30;;;17.70;1.00;;;;;;5074726;28;20632;-85
2022/03/28 11:04:00;;;;;;;27.10;16.67;;;17.50;1.00;;;;;;5075383;28;20203;-87
2022/03/28 11:06:49;;;;;;;34.60;22.02;;;17.40;1.00;;;;;;5078282;28;20197;-83
2022/03/28 11:09:51;;;;;;;76.82;45.13;;;17.40;1.00;;;;;;5079874;28;20226;-84
2022/03/28 11:12:22;;;;;;;74.55;52.42;;;17.30;1.00;;;;;;5076458;28;20203;-86
2022/03/28 11:14:57;;;;;;;31.83;21.48;;;17.20;1.00;;;;;;5077121;28;20596;-84
2022/03/28 11:17:28;;;;;;;36.17;24.92;;;17.20;1.00;;;;;;5075672;28;20336;-83
2022/03/28 11:20:12;;;;;;;26.95;14.73;;;17.10;1.00;;;;;;5075061;28;20177;-83
2022/03/28 11:22:47;;;;;;;23.50;16.13;;;17.10;1.00;;;;;;5075722;28;20190;-84
2022/03/28 11:25:47;;;;;;;21.80;14.27;;;17.20;1.00;;;;;;5078154;28;20182;-87
2022/03/28 11:28:20;;;;;;;24.42;14.32;;;17.20;1.00;;;;;;5034809;28;20193;-83
2022/03/28 11:30:58;;;;;;;18.52;11.95;;;17.20;1.00;;;;;;5070631;28;20248;-84
2022/03/28 11:33:33;;;;;;;20.20;12.05;;;17.30;1.00;;;;;;5078136;28;20186;-84
2022/03/28 11:36:03;;;;;;;23.65;12.13;;;17.30;1.00;;;;;;5076067;28;20694;-85
2022/03/28 11:38:32;;;;;;;19.00;12.05;;;17.40;1.00;;;;;;5075002;28;20280;-83
2022/03/28 11:41:08;;;;;;;16.08;10.93;;;17.40;1.00;;;;;;5076567;28;20195;-88
2022/03/28 11:43:39;;;;;;;14.90;10.73;;;17.40;1.00;;;;;;5076108;28;20203;-84
2022/03/28 11:46:14;;;;;;;15.05;10.30;;;17.30;1.00;;;;;;5075201;28;20701;-84
2022/03/28 11:48:55;;;;;;;16.92;10.43;;;17.40;1.00;;;;;;5076662;28;20192;-84
2022/03/28 11:51:26;;;;;;;16.20;9.90;;;17.40;1.00;;;;;;5074323;28;20652;-83
2022/03/28 11:53:53;;;;;;;16.60;10.43;;;17.50;1.00;;;;;;5076431;28;20669;-84
2022/03/28 11:56:24;;;;;;;16.98;10.63;;;17.50;1.00;;;;;;5073777;28;20748;-83
2022/03/28 11:59:01;;;;;;;14.10;8.30;;;17.50;1.00;;;;;;5074084;28;20195;-83
2022/03/28 12:01:29;;;;;;;38.67;26.30;;;17.60;1.00;;;;;;5074592;28;20223;-84
2022/03/28 12:03:56;;;;;;;15.77;9.40;;;17.60;1.00;;;;;;5074432;28;20193;-83
2022/03/28 12:06:27;;;;;;;32.17;8.63;;;17.50;1.00;;;;;;5076396;28;20199;-84
2022/03/28 12:09:00;;;;;;;13.05;7.72;;;17.50;1.00;;;;;;5073596;28;20176;-87
2022/03/28 12:11:27;;;;;;;10.75;7.63;;;17.50;1.00;;;;;;5074547;28;20287;-84
2022/03/28 12:14:01;;;;;;;12.07;8.02;;;17.50;1.00;;;;;;5075788;28;20260;-88
2022/03/28 12:16:31;;;;;;;9.55;6.65;;;17.60;1.00;;;;;;5068446;28;20210;-86
2022/03/28 12:19:19;;;;;;;9.20;6.13;;;17.60;1.00;;;;;;5078008;28;20249;-86
2022/03/28 12:21:47;;;;;;;8.70;6.47;;;17.70;1.00;;;;;;5074767;28;20249;-85
2022/03/28 12:24:18;;;;;;;10.48;6.93;;;17.70;1.00;;;;;;5072896;28;20200;-86
2022/03/28 12:26:46;;;;;;;9.50;6.80;;;17.60;1.00;;;;;;5075523;28;20548;-84
2022/03/28 12:29:24;;;;;;;8.15;5.03;;;17.60;1.00;;;;;;5075868;28;20199;-86
2022/03/28 12:31:52;;;;;;;10.20;4.90;;;17.70;1.00;;;;;;5073591;28;20256;-83
2022/03/28 12:34:20;;;;;;;8.30;4.72;;;17.70;1.00;;;;;;5073110;28;20245;-85
2022/03/28 12:36:52;;;;;;;6.80;4.70;;;17.70;1.00;;;;;;5074353;28;20301;-86
2022/03/28 12:39:20;;;;;;;7.93;4.40;;;17.70;1.00;;;;;;5073890;28;20191;-83
2022/03/28 12:41:48;;;;;;;8.05;4.63;;;17.70;1.00;;;;;;5073149;28;20201;-82
2022/03/28 12:44:18;;;;;;;8.90;4.57;;;17.70;1.00;;;;;;5074770;28;20241;-84
2022/03/28 12:46:48;;;;;;;8.27;4.25;;;17.70;1.00;;;;;;5073362;28;20191;-83
2022/03/28 12:49:18;;;;;;;12.00;4.55;;;17.70;1.00;;;;;;5073741;28;20712;-84
2022/03/28 12:51:46;;;;;;;5.30;3.92;;;17.60;1.00;;;;;;5074183;28;20198;-83
2022/03/28 12:54:23;;;;;;;43.13;6.90;;;17.60;1.00;;;;;;5074003;28;20199;-85
2022/03/28 12:56:54;;;;;;;7.32;4.00;;;17.60;1.00;;;;;;5073250;28;20184;-83
2022/03/28 12:59:24;;;;;;;5.82;4.00;;;17.70;1.00;;;;;;5073615;28;20184;-84
2022/03/28 13:01:53;;;;;;;8.02;5.10;;;17.60;1.00;;;;;;5072872;28;20274;-85
2022/03/28 13:04:23;;;;;;;9.65;6.05;;;17.60;1.00;;;;;;5073727;28;20582;-86
2022/03/28 13:06:51;;;;;;;8.13;4.40;;;17.60;1.00;;;;;;5073504;28;20198;-83
2022/03/28 13:09:19;;;;;;;6.18;3.17;;;17.60;1.00;;;;;;5074660;28;20223;-83